sensor_id;sensor_type;location;lat;lon;timestamp;temperature;humidity
22416;DHT22;12204;50.600;4.608;2024-01-11T00:00:18;21.90;61.10
22416;DHT22;12204;50.600;4.608;2024-01-11T00:05:23;21.90;61.10
22416;DHT22;12204;50.600;4.608;2024-01-11T00:10:27;21.90;61.40
22416;DHT22;12204;50.600;4.608;2024-01-11T00:15:31;21.80;61.60
22416;DHT22;12204;50.600;4.608;2024-01-11T00:20:36;21.80;61.90
22416;DHT22;12204;50.600;4.608;2024-01-11T00:25:39;21.80;62.20
22416;DHT22;12204;50.600;4.608;2024-01-11T00:30:43;21.70;62.40
22416;DHT22;12204;50.600;4.608;2024-01-11T00:35:48;21.70;62.10
22416;DHT22;12204;50.600;4.608;2024-01-11T00:40:51;21.60;61.20
22416;DHT22;12204;50.600;4.608;2024-01-11T00:45:55;21.60;60.30
22416;DHT22;12204;50.600;4.608;2024-01-11T00:51:00;21.50;60.50
22416;DHT22;12204;50.600;4.608;2024-01-11T00:56:03;21.40;60.50
22416;DHT22;12204;50.600;4.608;2024-01-11T01:01:09;21.40;61.50
22416;DHT22;12204;50.600;4.608;2024-01-11T01:06:14;21.40;61.80
22416;DHT22;12204;50.600;4.608;2024-01-11T01:11:17;21.40;61.90
22416;DHT22;12204;50.600;4.608;2024-01-11T01:16:21;21.50;62.70
22416;DHT22;12204;50.600;4.608;2024-01-11T01:21:26;21.50;62.50
22416;DHT22;12204;50.600;4.608;2024-01-11T01:26:30;21.60;61.70
22416;DHT22;12204;50.600;4.608;2024-01-11T01:31:33;21.60;61.80
22416;DHT22;12204;50.600;4.608;2024-01-11T01:36:41;21.70;61.80
22416;DHT22;12204;50.600;4.608;2024-01-11T01:41:44;21.70;61.70
22416;DHT22;12204;50.600;4.608;2024-01-11T01:46:48;21.70;62.30
22416;DHT22;12204;50.600;4.608;2024-01-11T01:51:55;21.70;61.50
22416;DHT22;12204;50.600;4.608;2024-01-11T01:57:00;21.70;61.40
22416;DHT22;12204;50.600;4.608;2024-01-11T02:02:06;21.70;61.50
22416;DHT22;12204;50.600;4.608;2024-01-11T02:07:11;21.70;61.50
22416;DHT22;12204;50.600;4.608;2024-01-11T02:12:16;21.70;61.20
22416;DHT22;12204;50.600;4.608;2024-01-11T02:17:20;21.70;61.20
22416;DHT22;12204;50.600;4.608;2024-01-11T02:22:28;21.70;61.60
22416;DHT22;12204;50.600;4.608;2024-01-11T02:27:46;21.70;61.60
22416;DHT22;12204;50.600;4.608;2024-01-11T02:32:51;21.70;61.60
22416;DHT22;12204;50.600;4.608;2024-01-11T02:37:56;21.70;61.70
22416;DHT22;12204;50.600;4.608;2024-01-11T02:43:09;21.60;61.70
22416;DHT22;12204;50.600;4.608;2024-01-11T02:48:12;21.60;61.70
22416;DHT22;12204;50.600;4.608;2024-01-11T02:53:16;21.60;62.20
22416;DHT22;12204;50.600;4.608;2024-01-11T02:58:21;21.50;62.50
22416;DHT22;12204;50.600;4.608;2024-01-11T03:03:25;21.50;62.60
22416;DHT22;12204;50.600;4.608;2024-01-11T03:08:28;21.50;62.80
22416;DHT22;12204;50.600;4.608;2024-01-11T03:13:33;21.40;62.70
22416;DHT22;12204;50.600;4.608;2024-01-11T03:18:37;21.50;62.90
22416;DHT22;12204;50.600;4.608;2024-01-11T03:23:41;21.50;62.40
22416;DHT22;12204;50.600;4.608;2024-01-11T03:28:46;21.60;61.80
22416;DHT22;12204;50.600;4.608;2024-01-11T03:33:50;21.70;61.20
22416;DHT22;12204;50.600;4.608;2024-01-11T03:38:53;21.70;60.30
22416;DHT22;12204;50.600;4.608;2024-01-11T03:43:58;21.80;59.80
22416;DHT22;12204;50.600;4.608;2024-01-11T03:49:02;21.80;59.80
22416;DHT22;12204;50.600;4.608;2024-01-11T03:54:06;21.90;59.10
22416;DHT22;12204;50.600;4.608;2024-01-11T03:59:11;21.90;59.50
22416;DHT22;12204;50.600;4.608;2024-01-11T04:04:16;21.90;59.60
22416;DHT22;12204;50.600;4.608;2024-01-11T04:09:19;21.90;59.80
22416;DHT22;12204;50.600;4.608;2024-01-11T04:14:24;21.90;60.00
22416;DHT22;12204;50.600;4.608;2024-01-11T04:19:27;21.90;60.10
22416;DHT22;12204;50.600;4.608;2024-01-11T04:24:31;21.90;60.00
22416;DHT22;12204;50.600;4.608;2024-01-11T04:29:36;21.90;60.10
22416;DHT22;12204;50.600;4.608;2024-01-11T04:34:39;21.90;60.30
22416;DHT22;12204;50.600;4.608;2024-01-11T04:39:43;22.00;60.10
22416;DHT22;12204;50.600;4.608;2024-01-11T04:44:48;22.00;60.10
22416;DHT22;12204;50.600;4.608;2024-01-11T04:49:51;22.00;59.30
22416;DHT22;12204;50.600;4.608;2024-01-11T04:54:55;22.10;59.70
22416;DHT22;12204;50.600;4.608;2024-01-11T05:00:00;22.10;59.50
22416;DHT22;12204;50.600;4.608;2024-01-11T05:05:05;22.10;59.60
22416;DHT22;12204;50.600;4.608;2024-01-11T05:10:09;22.10;59.70
22416;DHT22;12204;50.600;4.608;2024-01-11T05:15:14;22.20;59.70
22416;DHT22;12204;50.600;4.608;2024-01-11T05:20:17;22.10;59.70
22416;DHT22;12204;50.600;4.608;2024-01-11T05:25:21;22.20;59.90
22416;DHT22;12204;50.600;4.608;2024-01-11T05:30:26;22.10;60.00
22416;DHT22;12204;50.600;4.608;2024-01-11T05:35:32;22.10;60.00
22416;DHT22;12204;50.600;4.608;2024-01-11T05:40:35;22.10;60.00
22416;DHT22;12204;50.600;4.608;2024-01-11T05:45:40;22.10;60.00
22416;DHT22;12204;50.600;4.608;2024-01-11T05:50:49;22.10;60.00
22416;DHT22;12204;50.600;4.608;2024-01-11T05:55:52;22.00;60.10
22416;DHT22;12204;50.600;4.608;2024-01-11T06:00:58;22.00;60.20
22416;DHT22;12204;50.600;4.608;2024-01-11T06:06:03;22.00;60.50
22416;DHT22;12204;50.600;4.608;2024-01-11T06:11:07;21.90;60.70
22416;DHT22;12204;50.600;4.608;2024-01-11T06:16:12;21.90;60.70
22416;DHT22;12204;50.600;4.608;2024-01-11T06:21:15;21.80;60.50
22416;DHT22;12204;50.600;4.608;2024-01-11T06:26:19;21.80;60.20
22416;DHT22;12204;50.600;4.608;2024-01-11T06:31:24;21.70;59.90
22416;DHT22;12204;50.600;4.608;2024-01-11T06:36:29;21.70;59.70
22416;DHT22;12204;50.600;4.608;2024-01-11T06:41:33;21.60;59.30
22416;DHT22;12204;50.600;4.608;2024-01-11T06:46:37;21.60;59.30
22416;DHT22;12204;50.600;4.608;2024-01-11T06:51:43;21.50;59.40
22416;DHT22;12204;50.600;4.608;2024-01-11T06:56:46;21.50;59.30
22416;DHT22;12204;50.600;4.608;2024-01-11T07:01:52;21.50;59.40
22416;DHT22;12204;50.600;4.608;2024-01-11T07:06:55;21.40;59.80
22416;DHT22;12204;50.600;4.608;2024-01-11T07:11:59;21.40;59.90
22416;DHT22;12204;50.600;4.608;2024-01-11T07:17:05;21.40;59.80
22416;DHT22;12204;50.600;4.608;2024-01-11T07:22:09;21.30;59.70
22416;DHT22;12204;50.600;4.608;2024-01-11T07:27:12;21.30;59.50
22416;DHT22;12204;50.600;4.608;2024-01-11T07:32:18;21.30;59.60
22416;DHT22;12204;50.600;4.608;2024-01-11T07:37:21;21.30;59.70
22416;DHT22;12204;50.600;4.608;2024-01-11T07:42:27;21.20;59.90
22416;DHT22;12204;50.600;4.608;2024-01-11T07:47:32;21.20;59.80
22416;DHT22;12204;50.600;4.608;2024-01-11T07:52:36;21.20;59.90
22416;DHT22;12204;50.600;4.608;2024-01-11T07:57:40;21.20;60.20
22416;DHT22;12204;50.600;4.608;2024-01-11T08:02:45;21.10;59.60
22416;DHT22;12204;50.600;4.608;2024-01-11T08:07:48;21.10;59.60
22416;DHT22;12204;50.600;4.608;2024-01-11T08:12:52;21.20;61.20
22416;DHT22;12204;50.600;4.608;2024-01-11T08:17:58;21.10;61.00
22416;DHT22;12204;50.600;4.608;2024-01-11T08:23:02;21.10;60.80
22416;DHT22;12204;50.600;4.608;2024-01-11T08:28:06;21.10;60.60
22416;DHT22;12204;50.600;4.608;2024-01-11T08:33:11;21.10;60.60
22416;DHT22;12204;50.600;4.608;2024-01-11T08:38:16;21.10;61.20
22416;DHT22;12204;50.600;4.608;2024-01-11T08:43:19;21.00;61.40
22416;DHT22;12204;50.600;4.608;2024-01-11T08:48:24;21.00;61.70
22416;DHT22;12204;50.600;4.608;2024-01-11T08:53:28;21.00;61.80
22416;DHT22;12204;50.600;4.608;2024-01-11T08:58:31;20.90;62.10
22416;DHT22;12204;50.600;4.608;2024-01-11T09:03:36;20.80;59.30
22416;DHT22;12204;50.600;4.608;2024-01-11T09:08:40;20.60;56.60
22416;DHT22;12204;50.600;4.608;2024-01-11T09:13:44;20.50;55.00
22416;DHT22;12204;50.600;4.608;2024-01-11T09:18:49;20.40;53.50
22416;DHT22;12204;50.600;4.608;2024-01-11T09:23:53;20.20;52.50
22416;DHT22;12204;50.600;4.608;2024-01-11T09:28:57;20.10;51.80
22416;DHT22;12204;50.600;4.608;2024-01-11T09:34:02;20.00;51.20
22416;DHT22;12204;50.600;4.608;2024-01-11T09:39:05;20.00;50.40
22416;DHT22;12204;50.600;4.608;2024-01-11T09:44:10;20.10;49.50
22416;DHT22;12204;50.600;4.608;2024-01-11T09:49:17;20.20;49.00
22416;DHT22;12204;50.600;4.608;2024-01-11T09:54:23;20.30;48.80
22416;DHT22;12204;50.600;4.608;2024-01-11T09:59:28;20.30;48.60
22416;DHT22;12204;50.600;4.608;2024-01-11T10:04:33;20.30;48.40
22416;DHT22;12204;50.600;4.608;2024-01-11T10:09:39;20.40;50.70
22416;DHT22;12204;50.600;4.608;2024-01-11T10:14:42;20.40;52.20
22416;DHT22;12204;50.600;4.608;2024-01-11T10:19:47;20.50;54.00
22416;DHT22;12204;50.600;4.608;2024-01-11T10:25:08;20.50;55.00
22416;DHT22;12204;50.600;4.608;2024-01-11T10:30:15;20.70;55.80
22416;DHT22;12204;50.600;4.608;2024-01-11T10:35:21;20.70;56.30
22416;DHT22;12204;50.600;4.608;2024-01-11T10:40:26;20.80;57.10
22416;DHT22;12204;50.600;4.608;2024-01-11T10:45:31;20.80;57.80
22416;DHT22;12204;50.600;4.608;2024-01-11T10:50:44;20.90;58.00
22416;DHT22;12204;50.600;4.608;2024-01-11T10:55:49;20.90;58.30
22416;DHT22;12204;50.600;4.608;2024-01-11T11:00:54;20.90;58.60
22416;DHT22;12204;50.600;4.608;2024-01-11T11:06:00;20.90;59.20
22416;DHT22;12204;50.600;4.608;2024-01-11T11:11:04;20.90;59.20
22416;DHT22;12204;50.600;4.608;2024-01-11T11:16:09;20.90;59.30
22416;DHT22;12204;50.600;4.608;2024-01-11T11:21:15;20.90;57.70
22416;DHT22;12204;50.600;4.608;2024-01-11T11:26:18;20.90;58.40
22416;DHT22;12204;50.600;4.608;2024-01-11T11:31:35;20.80;58.50
22416;DHT22;12204;50.600;4.608;2024-01-11T11:36:41;20.80;58.70
22416;DHT22;12204;50.600;4.608;2024-01-11T11:41:45;20.80;59.40
22416;DHT22;12204;50.600;4.608;2024-01-11T11:46:51;20.70;59.60
22416;DHT22;12204;50.600;4.608;2024-01-11T11:51:57;20.70;59.60
22416;DHT22;12204;50.600;4.608;2024-01-11T11:57:01;20.60;59.60
22416;DHT22;12204;50.600;4.608;2024-01-11T12:02:09;20.60;59.70
22416;DHT22;12204;50.600;4.608;2024-01-11T12:07:21;20.60;59.80
22416;DHT22;12204;50.600;4.608;2024-01-11T12:12:25;20.60;59.90
22416;DHT22;12204;50.600;4.608;2024-01-11T12:17:28;20.50;60.00
22416;DHT22;12204;50.600;4.608;2024-01-11T12:22:33;20.50;60.10
22416;DHT22;12204;50.600;4.608;2024-01-11T12:27:37;20.50;60.20
22416;DHT22;12204;50.600;4.608;2024-01-11T12:32:42;20.50;60.20
22416;DHT22;12204;50.600;4.608;2024-01-11T12:37:54;20.40;60.30
22416;DHT22;12204;50.600;4.608;2024-01-11T12:42:57;20.40;60.50
22416;DHT22;12204;50.600;4.608;2024-01-11T12:48:03;20.40;60.60
22416;DHT22;12204;50.600;4.608;2024-01-11T12:53:15;20.40;60.70
22416;DHT22;12204;50.600;4.608;2024-01-11T12:58:22;20.30;60.90
22416;DHT22;12204;50.600;4.608;2024-01-11T13:03:26;20.30;61.00
22416;DHT22;12204;50.600;4.608;2024-01-11T13:08:31;20.30;61.10
22416;DHT22;12204;50.600;4.608;2024-01-11T13:13:38;20.20;61.10
22416;DHT22;12204;50.600;4.608;2024-01-11T13:18:41;20.20;61.50
22416;DHT22;12204;50.600;4.608;2024-01-11T13:23:46;20.20;63.40
22416;DHT22;12204;50.600;4.608;2024-01-11T13:28:50;20.20;63.40
22416;DHT22;12204;50.600;4.608;2024-01-11T13:33:54;20.20;63.30
22416;DHT22;12204;50.600;4.608;2024-01-11T13:39:00;20.20;63.10
22416;DHT22;12204;50.600;4.608;2024-01-11T13:44:04;20.20;63.20
22416;DHT22;12204;50.600;4.608;2024-01-11T13:49:08;20.20;63.00
22416;DHT22;12204;50.600;4.608;2024-01-11T13:54:13;20.20;62.90
22416;DHT22;12204;50.600;4.608;2024-01-11T13:59:17;20.10;62.70
22416;DHT22;12204;50.600;4.608;2024-01-11T14:04:20;20.10;62.80
22416;DHT22;12204;50.600;4.608;2024-01-11T14:09:26;20.10;62.70
22416;DHT22;12204;50.600;4.608;2024-01-11T14:14:30;20.10;62.80
22416;DHT22;12204;50.600;4.608;2024-01-11T14:19:33;20.10;62.70
22416;DHT22;12204;50.600;4.608;2024-01-11T14:24:38;20.10;62.70
22416;DHT22;12204;50.600;4.608;2024-01-11T14:29:42;20.10;62.70
22416;DHT22;12204;50.600;4.608;2024-01-11T14:34:46;20.10;62.60
22416;DHT22;12204;50.600;4.608;2024-01-11T14:39:51;20.10;62.60
22416;DHT22;12204;50.600;4.608;2024-01-11T14:44:54;20.10;62.60
22416;DHT22;12204;50.600;4.608;2024-01-11T14:49:59;20.10;62.60
22416;DHT22;12204;50.600;4.608;2024-01-11T14:55:05;20.10;62.70
22416;DHT22;12204;50.600;4.608;2024-01-11T15:00:13;20.10;62.70
22416;DHT22;12204;50.600;4.608;2024-01-11T15:05:18;20.10;62.70
22416;DHT22;12204;50.600;4.608;2024-01-11T15:10:23;20.10;62.70
22416;DHT22;12204;50.600;4.608;2024-01-11T15:15:26;20.10;62.80
22416;DHT22;12204;50.600;4.608;2024-01-11T15:20:29;20.00;62.70
22416;DHT22;12204;50.600;4.608;2024-01-11T15:25:34;20.00;62.70
22416;DHT22;12204;50.600;4.608;2024-01-11T15:30:38;20.10;62.90
22416;DHT22;12204;50.600;4.608;2024-01-11T15:35:42;20.00;62.80
22416;DHT22;12204;50.600;4.608;2024-01-11T15:40:47;20.00;62.90
22416;DHT22;12204;50.600;4.608;2024-01-11T15:45:50;20.00;63.00
22416;DHT22;12204;50.600;4.608;2024-01-11T15:50:55;20.00;63.00
22416;DHT22;12204;50.600;4.608;2024-01-11T15:56:00;19.90;63.00
22416;DHT22;12204;50.600;4.608;2024-01-11T16:01:04;19.90;63.10
22416;DHT22;12204;50.600;4.608;2024-01-11T16:06:08;19.90;63.20
22416;DHT22;12204;50.600;4.608;2024-01-11T16:11:14;19.90;63.30
22416;DHT22;12204;50.600;4.608;2024-01-11T16:16:17;19.80;63.30
22416;DHT22;12204;50.600;4.608;2024-01-11T16:21:22;19.80;63.30
22416;DHT22;12204;50.600;4.608;2024-01-11T16:26:31;19.80;63.40
22416;DHT22;12204;50.600;4.608;2024-01-11T16:31:35;19.80;63.50
22416;DHT22;12204;50.600;4.608;2024-01-11T16:36:38;19.70;63.50
22416;DHT22;12204;50.600;4.608;2024-01-11T16:41:43;19.70;63.50
22416;DHT22;12204;50.600;4.608;2024-01-11T16:46:49;19.70;63.50
22416;DHT22;12204;50.600;4.608;2024-01-11T16:51:54;19.70;63.60
22416;DHT22;12204;50.600;4.608;2024-01-11T16:56:59;19.70;63.70
22416;DHT22;12204;50.600;4.608;2024-01-11T17:02:03;19.70;63.70
22416;DHT22;12204;50.600;4.608;2024-01-11T17:07:06;19.70;63.70
22416;DHT22;12204;50.600;4.608;2024-01-11T17:12:13;19.60;63.70
22416;DHT22;12204;50.600;4.608;2024-01-11T17:17:17;19.60;63.80
22416;DHT22;12204;50.600;4.608;2024-01-11T17:22:21;19.60;63.90
22416;DHT22;12204;50.600;4.608;2024-01-11T17:27:26;19.60;63.90
22416;DHT22;12204;50.600;4.608;2024-01-11T17:32:29;19.50;63.90
22416;DHT22;12204;50.600;4.608;2024-01-11T17:37:33;19.50;63.90
22416;DHT22;12204;50.600;4.608;2024-01-11T17:42:38;19.50;64.00
22416;DHT22;12204;50.600;4.608;2024-01-11T17:47:44;19.50;64.00
22416;DHT22;12204;50.600;4.608;2024-01-11T17:52:48;19.50;64.00
22416;DHT22;12204;50.600;4.608;2024-01-11T17:57:54;19.50;64.00
22416;DHT22;12204;50.600;4.608;2024-01-11T18:02:59;19.50;64.10
22416;DHT22;12204;50.600;4.608;2024-01-11T18:08:04;19.50;64.20
22416;DHT22;12204;50.600;4.608;2024-01-11T18:13:09;19.50;64.40
22416;DHT22;12204;50.600;4.608;2024-01-11T18:18:14;19.70;64.80
22416;DHT22;12204;50.600;4.608;2024-01-11T18:23:18;19.80;64.80
22416;DHT22;12204;50.600;4.608;2024-01-11T18:28:23;20.00;64.80
22416;DHT22;12204;50.600;4.608;2024-01-11T18:33:27;20.20;64.40
22416;DHT22;12204;50.600;4.608;2024-01-11T18:38:30;20.50;64.30
22416;DHT22;12204;50.600;4.608;2024-01-11T18:43:37;20.60;63.90
22416;DHT22;12204;50.600;4.608;2024-01-11T18:48:40;20.80;63.60
22416;DHT22;12204;50.600;4.608;2024-01-11T18:53:44;20.90;63.30
22416;DHT22;12204;50.600;4.608;2024-01-11T18:58:50;21.00;62.90
22416;DHT22;12204;50.600;4.608;2024-01-11T19:03:53;21.10;62.70
22416;DHT22;12204;50.600;4.608;2024-01-11T19:08:57;21.10;62.50
22416;DHT22;12204;50.600;4.608;2024-01-11T19:14:02;21.20;62.30
22416;DHT22;12204;50.600;4.608;2024-01-11T19:19:06;21.20;62.20
22416;DHT22;12204;50.600;4.608;2024-01-11T19:24:09;21.20;62.20
22416;DHT22;12204;50.600;4.608;2024-01-11T19:29:14;21.20;62.10
22416;DHT22;12204;50.600;4.608;2024-01-11T19:34:18;21.20;62.00
22416;DHT22;12204;50.600;4.608;2024-01-11T19:39:22;21.20;62.00
22416;DHT22;12204;50.600;4.608;2024-01-11T19:44:26;21.20;62.10
22416;DHT22;12204;50.600;4.608;2024-01-11T19:49:31;21.20;62.10
22416;DHT22;12204;50.600;4.608;2024-01-11T19:54:35;21.20;62.00
22416;DHT22;12204;50.600;4.608;2024-01-11T19:59:39;21.20;62.10
22416;DHT22;12204;50.600;4.608;2024-01-11T20:04:43;21.20;62.70
22416;DHT22;12204;50.600;4.608;2024-01-11T20:09:47;21.20;62.60
22416;DHT22;12204;50.600;4.608;2024-01-11T20:14:52;21.10;62.50
22416;DHT22;12204;50.600;4.608;2024-01-11T20:19:56;21.10;62.60
22416;DHT22;12204;50.600;4.608;2024-01-11T20:24:59;21.10;62.60
22416;DHT22;12204;50.600;4.608;2024-01-11T20:30:05;21.10;62.80
22416;DHT22;12204;50.600;4.608;2024-01-11T20:35:13;21.10;62.80
22416;DHT22;12204;50.600;4.608;2024-01-11T20:40:17;21.30;62.80
22416;DHT22;12204;50.600;4.608;2024-01-11T20:45:22;21.40;62.60
22416;DHT22;12204;50.600;4.608;2024-01-11T20:50:25;21.50;62.50
22416;DHT22;12204;50.600;4.608;2024-01-11T20:55:29;21.60;62.30
22416;DHT22;12204;50.600;4.608;2024-01-11T21:00:34;21.70;62.10
22416;DHT22;12204;50.600;4.608;2024-01-11T21:05:38;21.70;61.90
22416;DHT22;12204;50.600;4.608;2024-01-11T21:10:43;21.70;61.80
22416;DHT22;12204;50.600;4.608;2024-01-11T21:15:48;21.80;61.50
22416;DHT22;12204;50.600;4.608;2024-01-11T21:20:52;21.80;61.70
22416;DHT22;12204;50.600;4.608;2024-01-11T21:25:58;21.80;61.60
22416;DHT22;12204;50.600;4.608;2024-01-11T21:31:03;21.90;61.50
22416;DHT22;12204;50.600;4.608;2024-01-11T21:36:07;21.80;61.70
22416;DHT22;12204;50.600;4.608;2024-01-11T21:41:10;21.90;62.20
22416;DHT22;12204;50.600;4.608;2024-01-11T21:46:15;21.90;62.40
22416;DHT22;12204;50.600;4.608;2024-01-11T21:51:19;21.80;62.40
22416;DHT22;12204;50.600;4.608;2024-01-11T21:56:22;21.80;62.40
22416;DHT22;12204;50.600;4.608;2024-01-11T22:01:27;21.70;62.50
22416;DHT22;12204;50.600;4.608;2024-01-11T22:06:31;21.70;62.50
22416;DHT22;12204;50.600;4.608;2024-01-11T22:11:35;21.60;62.60
22416;DHT22;12204;50.600;4.608;2024-01-11T22:16:40;21.60;62.60
22416;DHT22;12204;50.600;4.608;2024-01-11T22:21:44;21.60;62.80
22416;DHT22;12204;50.600;4.608;2024-01-11T22:26:47;21.50;62.90
22416;DHT22;12204;50.600;4.608;2024-01-11T22:31:52;21.50;63.00
22416;DHT22;12204;50.600;4.608;2024-01-11T22:36:56;21.40;63.20
22416;DHT22;12204;50.600;4.608;2024-01-11T22:42:00;21.30;63.20
22416;DHT22;12204;50.600;4.608;2024-01-11T22:47:07;21.30;63.40
22416;DHT22;12204;50.600;4.608;2024-01-11T22:52:10;21.30;63.60
22416;DHT22;12204;50.600;4.608;2024-01-11T22:57:14;21.40;64.30
22416;DHT22;12204;50.600;4.608;2024-01-11T23:02:19;21.50;64.20
22416;DHT22;12204;50.600;4.608;2024-01-11T23:07:22;21.70;64.30
22416;DHT22;12204;50.600;4.608;2024-01-11T23:12:26;21.80;64.00
22416;DHT22;12204;50.600;4.608;2024-01-11T23:17:31;22.00;63.40
22416;DHT22;12204;50.600;4.608;2024-01-11T23:22:38;22.10;63.30
22416;DHT22;12204;50.600;4.608;2024-01-11T23:27:41;22.20;63.10
22416;DHT22;12204;50.600;4.608;2024-01-11T23:32:46;22.20;62.80
22416;DHT22;12204;50.600;4.608;2024-01-11T23:37:50;22.30;62.60
22416;DHT22;12204;50.600;4.608;2024-01-11T23:42:53;22.30;63.30
22416;DHT22;12204;50.600;4.608;2024-01-11T23:47:58;22.30;62.40
22416;DHT22;12204;50.600;4.608;2024-01-11T23:53:02;22.40;62.40
22416;DHT22;12204;50.600;4.608;2024-01-11T23:58:06;22.40;62.30
